sensor_id;sensor_type;location;lat;lon;timestamp;temperature;humidity
14723;DHT22;7452;55.594;12.986;2023-02-12T00:00:18;4.10;99.90
14723;DHT22;7452;55.594;12.986;2023-02-12T00:02:45;4.10;99.90
14723;DHT22;7452;55.594;12.986;2023-02-12T00:05:13;4.10;99.90
14723;DHT22;7452;55.594;12.986;2023-02-12T00:07:43;4.00;99.90
14723;DHT22;7452;55.594;12.986;2023-02-12T00:10:10;4.00;99.90
14723;DHT22;7452;55.594;12.986;2023-02-12T00:12:40;4.00;99.90
14723;DHT22;7452;55.594;12.986;2023-02-12T00:15:08;4.00;99.90
14723;DHT22;7452;55.594;12.986;2023-02-12T00:17:37;4.00;99.90
14723;DHT22;7452;55.594;12.986;2023-02-12T00:20:04;4.00;99.90
14723;DHT22;7452;55.594;12.986;2023-02-12T00:22:31;4.00;99.90
14723;DHT22;7452;55.594;12.986;2023-02-12T00:24:59;4.00;99.90
14723;DHT22;7452;55.594;12.986;2023-02-12T00:27:26;3.90;99.90
14723;DHT22;7452;55.594;12.986;2023-02-12T00:29:54;4.00;99.90
14723;DHT22;7452;55.594;12.986;2023-02-12T00:32:22;3.90;99.90
14723;DHT22;7452;55.594;12.986;2023-02-12T00:34:59;3.90;99.90
14723;DHT22;7452;55.594;12.986;2023-02-12T00:37:27;3.90;99.90
14723;DHT22;7452;55.594;12.986;2023-02-12T00:39:54;3.90;99.90
14723;DHT22;7452;55.594;12.986;2023-02-12T00:42:22;4.00;99.90
14723;DHT22;7452;55.594;12.986;2023-02-12T00:44:49;4.00;99.90
14723;DHT22;7452;55.594;12.986;2023-02-12T00:47:16;4.00;99.90
14723;DHT22;7452;55.594;12.986;2023-02-12T00:49:45;4.00;99.90
14723;DHT22;7452;55.594;12.986;2023-02-12T00:52:16;4.00;99.90
14723;DHT22;7452;55.594;12.986;2023-02-12T00:54:43;3.90;99.90
14723;DHT22;7452;55.594;12.986;2023-02-12T00:57:14;3.90;99.90
14723;DHT22;7452;55.594;12.986;2023-02-12T00:59:41;3.80;99.90
14723;DHT22;7452;55.594;12.986;2023-02-12T01:02:08;3.80;99.90
14723;DHT22;7452;55.594;12.986;2023-02-12T01:04:36;3.80;99.90
14723;DHT22;7452;55.594;12.986;2023-02-12T01:07:08;3.80;99.90
14723;DHT22;7452;55.594;12.986;2023-02-12T01:09:37;3.80;99.90
14723;DHT22;7452;55.594;12.986;2023-02-12T01:12:05;3.80;99.90
14723;DHT22;7452;55.594;12.986;2023-02-12T01:14:32;3.80;99.90
14723;DHT22;7452;55.594;12.986;2023-02-12T01:16:59;3.80;99.90
14723;DHT22;7452;55.594;12.986;2023-02-12T01:19:27;3.90;99.90
14723;DHT22;7452;55.594;12.986;2023-02-12T01:21:55;3.80;99.90
14723;DHT22;7452;55.594;12.986;2023-02-12T01:24:22;3.80;99.90
14723;DHT22;7452;55.594;12.986;2023-02-12T01:26:51;3.80;99.90
14723;DHT22;7452;55.594;12.986;2023-02-12T01:29:18;3.80;99.90
14723;DHT22;7452;55.594;12.986;2023-02-12T01:31:45;3.70;99.90
14723;DHT22;7452;55.594;12.986;2023-02-12T01:34:13;3.70;99.90
14723;DHT22;7452;55.594;12.986;2023-02-12T01:36:41;3.70;99.90
14723;DHT22;7452;55.594;12.986;2023-02-12T01:39:10;3.70;99.90
14723;DHT22;7452;55.594;12.986;2023-02-12T01:41:39;3.70;99.90
14723;DHT22;7452;55.594;12.986;2023-02-12T01:44:20;3.70;99.90
14723;DHT22;7452;55.594;12.986;2023-02-12T01:46:48;3.70;99.90
14723;DHT22;7452;55.594;12.986;2023-02-12T01:49:20;3.60;99.90
14723;DHT22;7452;55.594;12.986;2023-02-12T01:51:51;3.60;99.90
14723;DHT22;7452;55.594;12.986;2023-02-12T01:54:19;3.60;99.90
14723;DHT22;7452;55.594;12.986;2023-02-12T01:56:50;3.60;99.90
14723;DHT22;7452;55.594;12.986;2023-02-12T01:59:22;3.60;99.90
14723;DHT22;7452;55.594;12.986;2023-02-12T02:01:49;3.70;99.90
14723;DHT22;7452;55.594;12.986;2023-02-12T02:04:20;3.70;99.90
14723;DHT22;7452;55.594;12.986;2023-02-12T02:06:55;3.70;99.90
14723;DHT22;7452;55.594;12.986;2023-02-12T02:09:23;3.80;99.90
14723;DHT22;7452;55.594;12.986;2023-02-12T02:11:51;3.80;99.90
14723;DHT22;7452;55.594;12.986;2023-02-12T02:14:38;3.80;99.90
14723;DHT22;7452;55.594;12.986;2023-02-12T02:17:17;3.90;99.90
14723;DHT22;7452;55.594;12.986;2023-02-12T02:20:20;3.90;99.90
14723;DHT22;7452;55.594;12.986;2023-02-12T02:23:01;3.90;99.90
14723;DHT22;7452;55.594;12.986;2023-02-12T02:25:51;3.80;99.90
14723;DHT22;7452;55.594;12.986;2023-02-12T02:28:39;3.80;99.90
14723;DHT22;7452;55.594;12.986;2023-02-12T02:31:19;3.70;99.90
14723;DHT22;7452;55.594;12.986;2023-02-12T02:33:53;3.70;99.90
14723;DHT22;7452;55.594;12.986;2023-02-12T02:36:27;3.60;99.90
14723;DHT22;7452;55.594;12.986;2023-02-12T02:39:04;3.60;99.90
14723;DHT22;7452;55.594;12.986;2023-02-12T02:41:36;3.60;99.90
14723;DHT22;7452;55.594;12.986;2023-02-12T02:44:08;3.60;99.90
14723;DHT22;7452;55.594;12.986;2023-02-12T02:46:42;3.60;99.90
14723;DHT22;7452;55.594;12.986;2023-02-12T02:49:15;3.70;99.90
14723;DHT22;7452;55.594;12.986;2023-02-12T02:51:46;3.70;99.90
14723;DHT22;7452;55.594;12.986;2023-02-12T02:54:20;3.70;99.90
14723;DHT22;7452;55.594;12.986;2023-02-12T02:56:51;3.80;99.90
14723;DHT22;7452;55.594;12.986;2023-02-12T02:59:24;3.90;99.90
14723;DHT22;7452;55.594;12.986;2023-02-12T03:01:58;4.00;99.90
14723;DHT22;7452;55.594;12.986;2023-02-12T03:04:31;4.00;99.90
14723;DHT22;7452;55.594;12.986;2023-02-12T03:07:03;4.10;99.90
14723;DHT22;7452;55.594;12.986;2023-02-12T03:09:36;4.20;99.90
14723;DHT22;7452;55.594;12.986;2023-02-12T03:12:10;4.30;99.90
14723;DHT22;7452;55.594;12.986;2023-02-12T03:14:43;4.30;99.90
14723;DHT22;7452;55.594;12.986;2023-02-12T03:17:14;4.30;99.90
14723;DHT22;7452;55.594;12.986;2023-02-12T03:19:44;4.40;99.90
14723;DHT22;7452;55.594;12.986;2023-02-12T03:22:16;4.30;99.90
14723;DHT22;7452;55.594;12.986;2023-02-12T03:24:46;4.40;99.90
14723;DHT22;7452;55.594;12.986;2023-02-12T03:27:18;4.40;99.90
14723;DHT22;7452;55.594;12.986;2023-02-12T03:29:46;4.40;99.90
14723;DHT22;7452;55.594;12.986;2023-02-12T03:32:23;4.40;99.90
14723;DHT22;7452;55.594;12.986;2023-02-12T03:35:02;4.40;99.90
14723;DHT22;7452;55.594;12.986;2023-02-12T03:37:35;4.40;99.90
14723;DHT22;7452;55.594;12.986;2023-02-12T03:40:07;4.40;99.90
14723;DHT22;7452;55.594;12.986;2023-02-12T03:42:42;4.40;99.90
14723;DHT22;7452;55.594;12.986;2023-02-12T03:45:18;4.40;99.90
14723;DHT22;7452;55.594;12.986;2023-02-12T03:47:50;4.40;99.90
14723;DHT22;7452;55.594;12.986;2023-02-12T03:50:26;4.50;99.90
14723;DHT22;7452;55.594;12.986;2023-02-12T03:52:54;4.50;99.90
14723;DHT22;7452;55.594;12.986;2023-02-12T03:55:23;4.60;99.90
14723;DHT22;7452;55.594;12.986;2023-02-12T03:57:54;4.70;99.90
14723;DHT22;7452;55.594;12.986;2023-02-12T04:00:25;4.70;99.90
14723;DHT22;7452;55.594;12.986;2023-02-12T04:02:54;4.70;99.90
14723;DHT22;7452;55.594;12.986;2023-02-12T04:05:22;4.70;99.90
14723;DHT22;7452;55.594;12.986;2023-02-12T04:07:51;4.70;99.90
14723;DHT22;7452;55.594;12.986;2023-02-12T04:10:22;4.80;99.90
14723;DHT22;7452;55.594;12.986;2023-02-12T04:12:53;4.80;99.90
14723;DHT22;7452;55.594;12.986;2023-02-12T04:15:34;4.90;99.90
14723;DHT22;7452;55.594;12.986;2023-02-12T04:18:09;4.90;99.90
14723;DHT22;7452;55.594;12.986;2023-02-12T04:20:43;4.90;99.90
14723;DHT22;7452;55.594;12.986;2023-02-12T04:23:27;5.10;99.90
14723;DHT22;7452;55.594;12.986;2023-02-12T04:26:04;5.00;99.90
14723;DHT22;7452;55.594;12.986;2023-02-12T04:28:37;5.00;99.90
14723;DHT22;7452;55.594;12.986;2023-02-12T04:31:12;5.10;99.90
14723;DHT22;7452;55.594;12.986;2023-02-12T04:33:47;5.00;99.90
14723;DHT22;7452;55.594;12.986;2023-02-12T04:36:17;5.10;99.90
14723;DHT22;7452;55.594;12.986;2023-02-12T04:38:50;5.10;99.90
14723;DHT22;7452;55.594;12.986;2023-02-12T04:41:18;5.10;99.90
14723;DHT22;7452;55.594;12.986;2023-02-12T04:43:46;5.10;99.90
14723;DHT22;7452;55.594;12.986;2023-02-12T04:46:14;5.10;99.90
14723;DHT22;7452;55.594;12.986;2023-02-12T04:48:51;5.10;99.90
14723;DHT22;7452;55.594;12.986;2023-02-12T04:51:18;5.10;99.90
14723;DHT22;7452;55.594;12.986;2023-02-12T04:53:47;5.10;99.90
14723;DHT22;7452;55.594;12.986;2023-02-12T04:56:16;5.00;99.90
14723;DHT22;7452;55.594;12.986;2023-02-12T04:58:44;5.10;99.90
14723;DHT22;7452;55.594;12.986;2023-02-12T05:01:12;5.20;99.90
14723;DHT22;7452;55.594;12.986;2023-02-12T05:03:42;5.10;99.90
14723;DHT22;7452;55.594;12.986;2023-02-12T05:06:11;5.10;99.90
14723;DHT22;7452;55.594;12.986;2023-02-12T05:08:39;5.10;99.90
14723;DHT22;7452;55.594;12.986;2023-02-12T05:11:08;5.20;99.90
14723;DHT22;7452;55.594;12.986;2023-02-12T05:13:37;5.10;99.90
14723;DHT22;7452;55.594;12.986;2023-02-12T05:16:08;5.20;99.90
14723;DHT22;7452;55.594;12.986;2023-02-12T05:18:35;5.20;99.90
14723;DHT22;7452;55.594;12.986;2023-02-12T05:21:04;5.20;99.90
14723;DHT22;7452;55.594;12.986;2023-02-12T05:23:35;5.20;99.90
14723;DHT22;7452;55.594;12.986;2023-02-12T05:26:05;5.20;99.90
14723;DHT22;7452;55.594;12.986;2023-02-12T05:28:33;5.30;99.90
14723;DHT22;7452;55.594;12.986;2023-02-12T05:31:04;5.20;99.90
14723;DHT22;7452;55.594;12.986;2023-02-12T05:33:32;5.20;99.90
14723;DHT22;7452;55.594;12.986;2023-02-12T05:36:03;5.20;99.90
14723;DHT22;7452;55.594;12.986;2023-02-12T05:38:30;5.10;99.90
14723;DHT22;7452;55.594;12.986;2023-02-12T05:41:03;5.10;99.90
14723;DHT22;7452;55.594;12.986;2023-02-12T05:43:30;5.20;99.90
14723;DHT22;7452;55.594;12.986;2023-02-12T05:45:58;5.10;99.90
14723;DHT22;7452;55.594;12.986;2023-02-12T05:48:27;5.20;99.90
14723;DHT22;7452;55.594;12.986;2023-02-12T05:51:00;5.30;99.90
14723;DHT22;7452;55.594;12.986;2023-02-12T05:53:28;5.20;99.90
14723;DHT22;7452;55.594;12.986;2023-02-12T05:56:10;5.30;99.90
14723;DHT22;7452;55.594;12.986;2023-02-12T05:58:38;5.30;99.90
14723;DHT22;7452;55.594;12.986;2023-02-12T06:01:09;5.30;99.90
14723;DHT22;7452;55.594;12.986;2023-02-12T06:03:37;5.40;99.90
14723;DHT22;7452;55.594;12.986;2023-02-12T06:06:04;5.30;99.90
14723;DHT22;7452;55.594;12.986;2023-02-12T06:08:31;5.30;99.90
14723;DHT22;7452;55.594;12.986;2023-02-12T06:11:00;5.30;99.90
14723;DHT22;7452;55.594;12.986;2023-02-12T06:13:30;5.30;99.90
14723;DHT22;7452;55.594;12.986;2023-02-12T06:15:58;5.40;99.90
14723;DHT22;7452;55.594;12.986;2023-02-12T06:18:26;5.30;99.90
14723;DHT22;7452;55.594;12.986;2023-02-12T06:20:54;5.30;99.90
14723;DHT22;7452;55.594;12.986;2023-02-12T06:23:24;5.30;99.90
14723;DHT22;7452;55.594;12.986;2023-02-12T06:25:55;5.40;99.90
14723;DHT22;7452;55.594;12.986;2023-02-12T06:28:23;5.30;99.90
14723;DHT22;7452;55.594;12.986;2023-02-12T06:30:55;5.30;99.90
14723;DHT22;7452;55.594;12.986;2023-02-12T06:33:22;5.30;99.90
14723;DHT22;7452;55.594;12.986;2023-02-12T06:35:50;5.30;99.90
14723;DHT22;7452;55.594;12.986;2023-02-12T06:38:19;5.30;99.90
14723;DHT22;7452;55.594;12.986;2023-02-12T06:40:47;5.30;99.90
14723;DHT22;7452;55.594;12.986;2023-02-12T06:43:14;5.30;99.90
14723;DHT22;7452;55.594;12.986;2023-02-12T06:45:42;5.30;99.90
14723;DHT22;7452;55.594;12.986;2023-02-12T06:48:11;5.30;99.90
14723;DHT22;7452;55.594;12.986;2023-02-12T06:50:38;5.40;99.90
14723;DHT22;7452;55.594;12.986;2023-02-12T06:53:06;5.50;99.90
14723;DHT22;7452;55.594;12.986;2023-02-12T06:55:34;5.50;99.90
14723;DHT22;7452;55.594;12.986;2023-02-12T06:58:02;5.40;99.90
14723;DHT22;7452;55.594;12.986;2023-02-12T07:00:29;5.40;99.90
14723;DHT22;7452;55.594;12.986;2023-02-12T07:02:58;5.40;99.90
14723;DHT22;7452;55.594;12.986;2023-02-12T07:05:30;5.40;99.90
14723;DHT22;7452;55.594;12.986;2023-02-12T07:08:00;5.40;99.90
14723;DHT22;7452;55.594;12.986;2023-02-12T07:10:28;5.50;99.90
14723;DHT22;7452;55.594;12.986;2023-02-12T07:12:56;5.50;99.90
14723;DHT22;7452;55.594;12.986;2023-02-12T07:15:23;5.50;99.90
14723;DHT22;7452;55.594;12.986;2023-02-12T07:17:50;5.50;99.90
14723;DHT22;7452;55.594;12.986;2023-02-12T07:20:18;5.60;99.90
14723;DHT22;7452;55.594;12.986;2023-02-12T07:22:46;5.60;99.90
14723;DHT22;7452;55.594;12.986;2023-02-12T07:25:14;5.70;99.90
14723;DHT22;7452;55.594;12.986;2023-02-12T07:27:41;5.80;99.90
14723;DHT22;7452;55.594;12.986;2023-02-12T07:30:09;5.80;99.90
14723;DHT22;7452;55.594;12.986;2023-02-12T07:32:36;5.90;99.90
14723;DHT22;7452;55.594;12.986;2023-02-12T07:35:08;5.90;99.90
14723;DHT22;7452;55.594;12.986;2023-02-12T07:37:35;6.00;99.90
14723;DHT22;7452;55.594;12.986;2023-02-12T07:40:05;6.00;99.90
14723;DHT22;7452;55.594;12.986;2023-02-12T07:42:32;6.00;99.90
14723;DHT22;7452;55.594;12.986;2023-02-12T07:45:01;6.10;99.90
14723;DHT22;7452;55.594;12.986;2023-02-12T07:47:29;6.00;99.90
14723;DHT22;7452;55.594;12.986;2023-02-12T07:49:57;6.10;99.90
14723;DHT22;7452;55.594;12.986;2023-02-12T07:52:25;6.10;99.90
14723;DHT22;7452;55.594;12.986;2023-02-12T07:54:53;6.10;99.90
14723;DHT22;7452;55.594;12.986;2023-02-12T07:57:21;6.20;99.90
14723;DHT22;7452;55.594;12.986;2023-02-12T07:59:48;6.20;99.90
14723;DHT22;7452;55.594;12.986;2023-02-12T08:02:15;6.20;99.90
14723;DHT22;7452;55.594;12.986;2023-02-12T08:04:42;6.30;99.90
14723;DHT22;7452;55.594;12.986;2023-02-12T08:07:10;6.30;99.90
14723;DHT22;7452;55.594;12.986;2023-02-12T08:09:37;6.30;99.90
14723;DHT22;7452;55.594;12.986;2023-02-12T08:12:04;6.40;99.90
14723;DHT22;7452;55.594;12.986;2023-02-12T08:14:34;6.40;99.90
14723;DHT22;7452;55.594;12.986;2023-02-12T08:17:03;6.40;99.90
14723;DHT22;7452;55.594;12.986;2023-02-12T08:19:32;6.50;99.90
14723;DHT22;7452;55.594;12.986;2023-02-12T08:22:03;6.50;99.90
14723;DHT22;7452;55.594;12.986;2023-02-12T08:24:32;6.60;99.90
14723;DHT22;7452;55.594;12.986;2023-02-12T08:27:00;6.60;99.90
14723;DHT22;7452;55.594;12.986;2023-02-12T08:29:29;6.70;99.90
14723;DHT22;7452;55.594;12.986;2023-02-12T08:31:59;6.80;99.90
14723;DHT22;7452;55.594;12.986;2023-02-12T08:34:27;6.80;99.90
14723;DHT22;7452;55.594;12.986;2023-02-12T08:36:55;6.80;99.90
14723;DHT22;7452;55.594;12.986;2023-02-12T08:39:24;6.90;99.90
14723;DHT22;7452;55.594;12.986;2023-02-12T08:41:53;6.90;99.90
14723;DHT22;7452;55.594;12.986;2023-02-12T08:44:21;7.00;99.90
14723;DHT22;7452;55.594;12.986;2023-02-12T08:46:50;6.90;99.90
14723;DHT22;7452;55.594;12.986;2023-02-12T08:49:21;6.90;99.90
14723;DHT22;7452;55.594;12.986;2023-02-12T08:51:49;7.00;99.90
14723;DHT22;7452;55.594;12.986;2023-02-12T08:54:18;7.20;99.90
14723;DHT22;7452;55.594;12.986;2023-02-12T08:56:45;7.20;99.90
14723;DHT22;7452;55.594;12.986;2023-02-12T08:59:14;7.20;99.90
14723;DHT22;7452;55.594;12.986;2023-02-12T09:01:41;7.20;99.90
14723;DHT22;7452;55.594;12.986;2023-02-12T09:04:13;7.20;99.90
14723;DHT22;7452;55.594;12.986;2023-02-12T09:06:44;7.30;99.90
14723;DHT22;7452;55.594;12.986;2023-02-12T09:09:12;7.20;99.90
14723;DHT22;7452;55.594;12.986;2023-02-12T09:11:40;7.20;99.90
14723;DHT22;7452;55.594;12.986;2023-02-12T09:14:11;7.20;99.90
14723;DHT22;7452;55.594;12.986;2023-02-12T09:16:39;7.30;99.90
14723;DHT22;7452;55.594;12.986;2023-02-12T09:19:07;7.30;99.90
14723;DHT22;7452;55.594;12.986;2023-02-12T09:21:35;7.30;99.90
14723;DHT22;7452;55.594;12.986;2023-02-12T09:24:04;7.50;99.90
14723;DHT22;7452;55.594;12.986;2023-02-12T09:26:31;7.50;99.90
14723;DHT22;7452;55.594;12.986;2023-02-12T09:29:01;7.50;99.90
14723;DHT22;7452;55.594;12.986;2023-02-12T09:31:30;7.50;99.90
14723;DHT22;7452;55.594;12.986;2023-02-12T09:33:58;7.50;99.90
14723;DHT22;7452;55.594;12.986;2023-02-12T09:36:27;7.50;99.90
14723;DHT22;7452;55.594;12.986;2023-02-12T09:38:54;7.50;99.90
14723;DHT22;7452;55.594;12.986;2023-02-12T09:44:21;7.70;99.90
14723;DHT22;7452;55.594;12.986;2023-02-12T09:46:54;7.70;99.90
14723;DHT22;7452;55.594;12.986;2023-02-12T09:49:38;7.80;99.90
14723;DHT22;7452;55.594;12.986;2023-02-12T09:52:13;7.70;99.90
14723;DHT22;7452;55.594;12.986;2023-02-12T09:54:42;7.80;99.90
14723;DHT22;7452;55.594;12.986;2023-02-12T09:57:16;7.70;99.90
14723;DHT22;7452;55.594;12.986;2023-02-12T09:59:48;7.80;99.90
14723;DHT22;7452;55.594;12.986;2023-02-12T10:02:18;7.80;99.90
14723;DHT22;7452;55.594;12.986;2023-02-12T10:04:48;7.80;99.90
14723;DHT22;7452;55.594;12.986;2023-02-12T10:07:23;7.90;99.90
14723;DHT22;7452;55.594;12.986;2023-02-12T10:10:06;7.90;99.90
14723;DHT22;7452;55.594;12.986;2023-02-12T10:12:41;8.00;99.90
14723;DHT22;7452;55.594;12.986;2023-02-12T10:15:34;8.10;99.90
14723;DHT22;7452;55.594;12.986;2023-02-12T10:18:17;8.20;99.90
14723;DHT22;7452;55.594;12.986;2023-02-12T10:20:52;8.20;99.90
14723;DHT22;7452;55.594;12.986;2023-02-12T10:23:50;8.30;99.90
14723;DHT22;7452;55.594;12.986;2023-02-12T10:26:21;8.10;99.90
14723;DHT22;7452;55.594;12.986;2023-02-12T10:28:52;8.30;99.90
14723;DHT22;7452;55.594;12.986;2023-02-12T10:31:24;8.30;99.90
14723;DHT22;7452;55.594;12.986;2023-02-12T10:33:53;8.40;99.90
14723;DHT22;7452;55.594;12.986;2023-02-12T10:36:31;8.30;99.90
14723;DHT22;7452;55.594;12.986;2023-02-12T10:39:12;8.30;99.90
14723;DHT22;7452;55.594;12.986;2023-02-12T10:41:45;8.40;99.90
14723;DHT22;7452;55.594;12.986;2023-02-12T10:44:17;8.30;99.90
14723;DHT22;7452;55.594;12.986;2023-02-12T10:46:45;8.50;99.90
14723;DHT22;7452;55.594;12.986;2023-02-12T10:49:15;8.60;99.90
14723;DHT22;7452;55.594;12.986;2023-02-12T10:52:01;8.60;99.90
14723;DHT22;7452;55.594;12.986;2023-02-12T10:54:36;8.70;99.90
14723;DHT22;7452;55.594;12.986;2023-02-12T10:57:11;8.60;99.90
14723;DHT22;7452;55.594;12.986;2023-02-12T10:59:42;8.60;99.90
14723;DHT22;7452;55.594;12.986;2023-02-12T11:02:24;8.50;99.90
14723;DHT22;7452;55.594;12.986;2023-02-12T11:04:53;8.60;99.90
14723;DHT22;7452;55.594;12.986;2023-02-12T11:07:21;8.50;99.90
14723;DHT22;7452;55.594;12.986;2023-02-12T11:09:50;8.50;99.90
14723;DHT22;7452;55.594;12.986;2023-02-12T11:12:28;8.40;99.90
14723;DHT22;7452;55.594;12.986;2023-02-12T11:15:03;8.40;99.90
14723;DHT22;7452;55.594;12.986;2023-02-12T11:17:35;8.30;99.90
14723;DHT22;7452;55.594;12.986;2023-02-12T11:20:28;8.40;99.90
14723;DHT22;7452;55.594;12.986;2023-02-12T11:23:04;8.40;99.90
14723;DHT22;7452;55.594;12.986;2023-02-12T11:25:32;8.30;99.90
14723;DHT22;7452;55.594;12.986;2023-02-12T11:28:12;8.30;99.90
14723;DHT22;7452;55.594;12.986;2023-02-12T11:30:56;8.30;99.90
14723;DHT22;7452;55.594;12.986;2023-02-12T11:33:26;8.40;99.90
14723;DHT22;7452;55.594;12.986;2023-02-12T11:35:56;8.40;99.90
14723;DHT22;7452;55.594;12.986;2023-02-12T11:38:27;8.30;99.90
14723;DHT22;7452;55.594;12.986;2023-02-12T11:41:01;8.40;99.90
14723;DHT22;7452;55.594;12.986;2023-02-12T11:43:32;8.30;99.90
14723;DHT22;7452;55.594;12.986;2023-02-12T11:46:07;8.30;99.90
14723;DHT22;7452;55.594;12.986;2023-02-12T11:48:37;8.20;99.90
14723;DHT22;7452;55.594;12.986;2023-02-12T11:51:17;8.20;99.90
14723;DHT22;7452;55.594;12.986;2023-02-12T11:53:48;8.00;99.90
14723;DHT22;7452;55.594;12.986;2023-02-12T11:56:38;8.00;99.90
14723;DHT22;7452;55.594;12.986;2023-02-12T11:59:16;8.10;99.90
14723;DHT22;7452;55.594;12.986;2023-02-12T12:01:50;8.10;99.90
14723;DHT22;7452;55.594;12.986;2023-02-12T12:04:19;8.30;99.90
14723;DHT22;7452;55.594;12.986;2023-02-12T12:06:51;8.30;99.90
14723;DHT22;7452;55.594;12.986;2023-02-12T12:09:23;8.10;99.90
14723;DHT22;7452;55.594;12.986;2023-02-12T12:11:56;8.40;99.90
14723;DHT22;7452;55.594;12.986;2023-02-12T12:14:32;8.40;99.90
14723;DHT22;7452;55.594;12.986;2023-02-12T12:17:35;8.60;99.90
14723;DHT22;7452;55.594;12.986;2023-02-12T12:20:28;8.70;99.90
14723;DHT22;7452;55.594;12.986;2023-02-12T12:23:03;8.80;99.90
14723;DHT22;7452;55.594;12.986;2023-02-12T12:25:39;9.00;99.90
14723;DHT22;7452;55.594;12.986;2023-02-12T12:28:22;9.20;99.90
14723;DHT22;7452;55.594;12.986;2023-02-12T12:31:02;9.40;99.90
14723;DHT22;7452;55.594;12.986;2023-02-12T12:33:37;9.30;99.90
14723;DHT22;7452;55.594;12.986;2023-02-12T12:36:40;9.30;99.90
14723;DHT22;7452;55.594;12.986;2023-02-12T12:39:26;9.40;99.90
14723;DHT22;7452;55.594;12.986;2023-02-12T12:45:09;9.70;99.90
14723;DHT22;7452;55.594;12.986;2023-02-12T12:47:59;10.00;99.90
14723;DHT22;7452;55.594;12.986;2023-02-12T12:50:46;9.80;99.90
14723;DHT22;7452;55.594;12.986;2023-02-12T12:53:24;9.80;99.90
14723;DHT22;7452;55.594;12.986;2023-02-12T12:56:25;9.90;99.90
14723;DHT22;7452;55.594;12.986;2023-02-12T12:59:09;10.20;99.90
14723;DHT22;7452;55.594;12.986;2023-02-12T13:01:57;10.40;99.90
14723;DHT22;7452;55.594;12.986;2023-02-12T13:04:54;10.80;99.90
14723;DHT22;7452;55.594;12.986;2023-02-12T13:07:41;10.80;99.90
14723;DHT22;7452;55.594;12.986;2023-02-12T13:10:25;11.60;99.90
14723;DHT22;7452;55.594;12.986;2023-02-12T13:13:19;11.70;99.90
14723;DHT22;7452;55.594;12.986;2023-02-12T13:16:03;11.70;99.90
14723;DHT22;7452;55.594;12.986;2023-02-12T13:18:44;11.90;99.90
14723;DHT22;7452;55.594;12.986;2023-02-12T13:21:33;12.00;99.90
14723;DHT22;7452;55.594;12.986;2023-02-12T13:24:15;11.60;99.90
14723;DHT22;7452;55.594;12.986;2023-02-12T13:26:53;11.40;99.90
14723;DHT22;7452;55.594;12.986;2023-02-12T13:29:25;12.00;99.90
14723;DHT22;7452;55.594;12.986;2023-02-12T13:31:57;11.60;99.90
14723;DHT22;7452;55.594;12.986;2023-02-12T13:34:33;11.40;99.90
14723;DHT22;7452;55.594;12.986;2023-02-12T13:37:03;11.60;99.90
14723;DHT22;7452;55.594;12.986;2023-02-12T13:39:45;11.70;99.90
14723;DHT22;7452;55.594;12.986;2023-02-12T13:42:27;11.60;99.90
14723;DHT22;7452;55.594;12.986;2023-02-12T13:45:04;11.60;99.90
14723;DHT22;7452;55.594;12.986;2023-02-12T13:47:44;11.50;99.90
14723;DHT22;7452;55.594;12.986;2023-02-12T13:50:30;11.40;99.90
14723;DHT22;7452;55.594;12.986;2023-02-12T13:53:04;11.30;99.90
14723;DHT22;7452;55.594;12.986;2023-02-12T13:55:38;11.10;99.90
14723;DHT22;7452;55.594;12.986;2023-02-12T13:58:38;10.90;99.90
14723;DHT22;7452;55.594;12.986;2023-02-12T14:01:08;10.80;99.90
14723;DHT22;7452;55.594;12.986;2023-02-12T14:03:39;10.60;99.90
14723;DHT22;7452;55.594;12.986;2023-02-12T14:06:10;10.50;99.90
14723;DHT22;7452;55.594;12.986;2023-02-12T14:08:45;10.40;99.90
14723;DHT22;7452;55.594;12.986;2023-02-12T14:11:16;10.40;99.90
14723;DHT22;7452;55.594;12.986;2023-02-12T14:13:51;10.40;99.90
14723;DHT22;7452;55.594;12.986;2023-02-12T14:16:34;10.50;99.90
14723;DHT22;7452;55.594;12.986;2023-02-12T14:25:55;10.70;99.90
14723;DHT22;7452;55.594;12.986;2023-02-12T14:28:38;10.90;99.90
14723;DHT22;7452;55.594;12.986;2023-02-12T14:31:29;10.90;99.90
14723;DHT22;7452;55.594;12.986;2023-02-12T14:37:46;11.10;99.90
14723;DHT22;7452;55.594;12.986;2023-02-12T14:40:40;11.40;99.90
14723;DHT22;7452;55.594;12.986;2023-02-12T14:43:32;11.70;99.90
14723;DHT22;7452;55.594;12.986;2023-02-12T14:46:42;11.80;99.90
14723;DHT22;7452;55.594;12.986;2023-02-12T14:49:18;11.90;99.90
14723;DHT22;7452;55.594;12.986;2023-02-12T14:51:53;11.80;99.90
14723;DHT22;7452;55.594;12.986;2023-02-12T14:54:27;11.60;99.90
14723;DHT22;7452;55.594;12.986;2023-02-12T14:56:58;11.60;99.90
14723;DHT22;7452;55.594;12.986;2023-02-12T14:59:32;11.40;99.90
14723;DHT22;7452;55.594;12.986;2023-02-12T15:02:02;11.30;99.90
14723;DHT22;7452;55.594;12.986;2023-02-12T15:04:31;11.10;99.90
14723;DHT22;7452;55.594;12.986;2023-02-12T15:07:04;11.00;99.90
14723;DHT22;7452;55.594;12.986;2023-02-12T15:09:35;10.80;99.90
14723;DHT22;7452;55.594;12.986;2023-02-12T15:12:14;10.70;99.90
14723;DHT22;7452;55.594;12.986;2023-02-12T15:14:49;10.50;99.90
14723;DHT22;7452;55.594;12.986;2023-02-12T15:17:19;10.40;99.90
14723;DHT22;7452;55.594;12.986;2023-02-12T15:19:58;10.20;99.90
14723;DHT22;7452;55.594;12.986;2023-02-12T15:22:30;10.10;99.90
14723;DHT22;7452;55.594;12.986;2023-02-12T15:25:22;9.90;99.90
14723;DHT22;7452;55.594;12.986;2023-02-12T15:27:53;9.80;99.90
14723;DHT22;7452;55.594;12.986;2023-02-12T15:30:29;9.70;99.90
14723;DHT22;7452;55.594;12.986;2023-02-12T15:33:03;9.60;99.90
14723;DHT22;7452;55.594;12.986;2023-02-12T15:35:33;9.60;99.90
14723;DHT22;7452;55.594;12.986;2023-02-12T15:38:05;9.50;99.90
14723;DHT22;7452;55.594;12.986;2023-02-12T15:40:36;9.40;99.90
14723;DHT22;7452;55.594;12.986;2023-02-12T15:43:15;9.30;99.90
14723;DHT22;7452;55.594;12.986;2023-02-12T15:45:58;9.20;99.90
14723;DHT22;7452;55.594;12.986;2023-02-12T15:48:29;9.10;99.90
14723;DHT22;7452;55.594;12.986;2023-02-12T15:51:04;9.00;99.90
14723;DHT22;7452;55.594;12.986;2023-02-12T15:53:37;8.90;99.90
14723;DHT22;7452;55.594;12.986;2023-02-12T15:56:11;8.90;99.90
14723;DHT22;7452;55.594;12.986;2023-02-12T15:58:46;8.80;99.90
14723;DHT22;7452;55.594;12.986;2023-02-12T16:01:21;8.70;99.90
14723;DHT22;7452;55.594;12.986;2023-02-12T16:03:57;8.60;99.90
14723;DHT22;7452;55.594;12.986;2023-02-12T16:06:29;8.50;99.90
14723;DHT22;7452;55.594;12.986;2023-02-12T16:09:05;8.50;99.90
14723;DHT22;7452;55.594;12.986;2023-02-12T16:11:51;8.40;99.90
14723;DHT22;7452;55.594;12.986;2023-02-12T16:14:21;8.40;99.90
14723;DHT22;7452;55.594;12.986;2023-02-12T16:16:58;8.30;99.90
14723;DHT22;7452;55.594;12.986;2023-02-12T16:19:27;8.30;99.90
14723;DHT22;7452;55.594;12.986;2023-02-12T16:22:01;8.30;99.90
14723;DHT22;7452;55.594;12.986;2023-02-12T16:24:35;8.20;99.90
14723;DHT22;7452;55.594;12.986;2023-02-12T16:27:23;8.20;99.90
14723;DHT22;7452;55.594;12.986;2023-02-12T16:29:54;8.10;99.90
14723;DHT22;7452;55.594;12.986;2023-02-12T16:32:47;8.00;99.90
14723;DHT22;7452;55.594;12.986;2023-02-12T16:35:31;8.00;99.90
14723;DHT22;7452;55.594;12.986;2023-02-12T16:38:21;7.90;99.90